Time;durP1;ratioP1;P1;durP2;ratioP2;P2;SDS_P1;SDS_P2;PMS_P1;PMS_P2;Temp;Humidity;BMP_temperature;BMP_pressure;BME280_temperature;BME280_humidity;BME280_pressure;Samples;Min_cycle;Max_cycle;Signal;HPM_P1;HPM_P2
2023/07/22 00:00:44;;;;;;;1.57;1.47;;;13.00;99.90;;;;;;5033714;28;20171;-70
2023/07/22 00:03:09;;;;;;;0.93;0.93;;;12.80;99.90;;;;;;5033740;28;20595;-69
2023/07/22 00:05:35;;;;;;;0.90;0.90;;;12.80;99.90;;;;;;5033398;28;20252;-68
2023/07/22 00:08:01;;;;;;;1.83;1.73;;;12.90;99.90;;;;;;5033806;28;20229;-69
2023/07/22 00:10:26;;;;;;;0.53;0.53;;;12.90;99.90;;;;;;5033615;28;20670;-68
2023/07/22 00:12:52;;;;;;;0.80;0.80;;;12.90;99.90;;;;;;5033409;28;20181;-68
2023/07/22 00:15:20;;;;;;;1.07;1.00;;;12.90;99.90;;;;;;5033699;28;20175;-69
2023/07/22 00:17:45;;;;;;;0.50;0.50;;;12.80;99.90;;;;;;5033322;28;20553;-69
2023/07/22 00:20:11;;;;;;;1.90;1.10;;;12.70;99.90;;;;;;5033572;28;20422;-68
2023/07/22 00:22:39;;;;;;;0.80;0.80;;;12.60;99.90;;;;;;5033342;28;20177;-68
2023/07/22 00:25:07;;;;;;;1.50;1.17;;;12.60;99.90;;;;;;5033391;28;20485;-69
2023/07/22 00:27:33;;;;;;;1.30;1.27;;;12.70;99.90;;;;;;5033399;28;20436;-69
2023/07/22 00:29:59;;;;;;;0.40;0.40;;;12.80;99.90;;;;;;5033299;28;20765;-68
2023/07/22 00:32:24;;;;;;;0.70;0.70;;;12.70;99.90;;;;;;5033218;28;20210;-69
2023/07/22 00:34:50;;;;;;;0.80;0.80;;;12.80;99.90;;;;;;5033239;28;20170;-68
2023/07/22 00:37:16;;;;;;;1.40;1.40;;;12.40;99.90;;;;;;5033553;28;20171;-68
2023/07/22 00:39:42;;;;;;;4.53;1.73;;;12.60;99.90;;;;;;5033479;28;20423;-68
2023/07/22 00:42:08;;;;;;;3.83;1.10;;;12.50;99.90;;;;;;5033057;28;20436;-68
2023/07/22 00:44:33;;;;;;;0.60;0.40;;;12.60;99.90;;;;;;5033163;28;20205;-69
2023/07/22 00:47:00;;;;;;;1.27;1.20;;;12.60;99.90;;;;;;5033166;28;20460;-69
2023/07/22 00:49:27;;;;;;;0.60;0.60;;;12.60;99.90;;;;;;5033143;28;20213;-68
2023/07/22 00:51:53;;;;;;;1.55;1.45;;;12.50;99.90;;;;;;5033045;28;20809;-69
2023/07/22 00:54:19;;;;;;;0.93;0.93;;;12.50;99.90;;;;;;5033123;28;20175;-68
2023/07/22 00:56:47;;;;;;;1.03;0.87;;;12.50;99.90;;;;;;5033270;28;20585;-68
2023/07/22 00:59:13;;;;;;;0.77;0.70;;;12.50;99.90;;;;;;5033077;28;20190;-69
2023/07/22 01:01:40;;;;;;;1.80;1.60;;;12.50;99.90;;;;;;5032950;28;20410;-69
2023/07/22 01:04:06;;;;;;;0.50;0.50;;;12.50;99.90;;;;;;5032999;28;20492;-68
2023/07/22 01:06:34;;;;;;;1.53;1.13;;;12.60;99.90;;;;;;5033114;28;20398;-69
2023/07/22 01:09:00;;;;;;;0.83;0.77;;;12.50;99.90;;;;;;5032908;28;20432;-68
2023/07/22 01:11:25;;;;;;;0.63;0.63;;;12.50;99.90;;;;;;5032918;28;20474;-68
2023/07/22 01:13:57;;;;;;;0.87;0.83;;;12.40;99.90;;;;;;5032953;28;20193;-68
2023/07/22 01:16:24;;;;;;;1.33;0.90;;;12.40;99.90;;;;;;5032973;28;20189;-69
2023/07/22 01:18:50;;;;;;;1.80;0.93;;;12.50;99.90;;;;;;5032799;28;20540;-69
2023/07/22 01:21:16;;;;;;;0.50;0.50;;;12.60;99.90;;;;;;5032810;28;20493;-69
2023/07/22 01:23:42;;;;;;;1.03;0.70;;;12.70;99.90;;;;;;5032853;28;20406;-69
2023/07/22 01:26:08;;;;;;;1.67;1.57;;;12.70;99.90;;;;;;5032963;28;20429;-69
2023/07/22 01:28:35;;;;;;;0.67;0.50;;;12.80;99.90;;;;;;5032760;28;20428;-69
2023/07/22 01:31:01;;;;;;;0.75;0.70;;;12.80;99.90;;;;;;5033011;28;20169;-69
2023/07/22 01:33:27;;;;;;;0.70;0.70;;;12.80;99.90;;;;;;5032958;28;20524;-68
2023/07/22 01:35:53;;;;;;;2.92;1.55;;;12.80;99.90;;;;;;5032782;28;20173;-69
2023/07/22 01:38:19;;;;;;;1.20;1.00;;;12.80;99.90;;;;;;5032725;28;20195;-69
2023/07/22 01:40:45;;;;;;;0.40;0.40;;;12.80;99.90;;;;;;5033127;28;20493;-69
2023/07/22 01:43:10;;;;;;;1.30;1.03;;;12.90;99.90;;;;;;5036308;28;20276;-69
2023/07/22 01:45:37;;;;;;;1.87;0.83;;;12.90;99.90;;;;;;5036242;28;20289;-69
2023/07/22 01:48:03;;;;;;;0.80;0.80;;;12.90;99.90;;;;;;5036195;28;20211;-68
2023/07/22 01:50:29;;;;;;;1.90;1.80;;;12.80;99.90;;;;;;5036285;28;20814;-69
2023/07/22 01:52:55;;;;;;;1.53;1.47;;;12.80;99.90;;;;;;5036160;28;20407;-69
2023/07/22 01:55:20;;;;;;;0.60;0.60;;;12.80;99.90;;;;;;5036109;28;20175;-70
2023/07/22 01:57:46;;;;;;;2.23;0.50;;;12.80;99.90;;;;;;5036008;28;20478;-69
2023/07/22 02:00:12;;;;;;;2.10;1.70;;;12.90;99.90;;;;;;5036087;28;20209;-69
2023/07/22 02:02:38;;;;;;;0.77;0.77;;;12.90;99.90;;;;;;5035901;28;20587;-68
2023/07/22 02:05:04;;;;;;;0.50;0.50;;;12.90;99.90;;;;;;5035940;28;20443;-68
2023/07/22 02:07:30;;;;;;;1.23;0.60;;;12.80;99.90;;;;;;5035989;28;20182;-69
2023/07/22 02:09:56;;;;;;;0.90;0.70;;;12.90;99.90;;;;;;5035780;28;20409;-69
2023/07/22 02:12:22;;;;;;;0.50;0.50;;;12.80;99.90;;;;;;5035632;28;20401;-68
2023/07/22 02:14:47;;;;;;;0.90;0.90;;;12.60;99.90;;;;;;5035691;28;20175;-68
2023/07/22 02:17:13;;;;;;;3.33;1.70;;;12.60;99.90;;;;;;5035520;28;20253;-69
2023/07/22 02:19:38;;;;;;;0.60;0.60;;;12.60;99.90;;;;;;5035826;28;20229;-69
2023/07/22 02:22:05;;;;;;;1.10;1.10;;;12.60;99.90;;;;;;5035401;28;20582;-68
2023/07/22 02:24:31;;;;;;;0.30;0.30;;;12.60;99.90;;;;;;5017736;28;20817;-68
2023/07/22 02:26:57;;;;;;;1.08;0.75;;;12.60;99.90;;;;;;5035737;28;20400;-69
2023/07/22 02:29:22;;;;;;;0.90;0.50;;;12.50;99.90;;;;;;5035447;28;20195;-68
2023/07/22 02:31:50;;;;;;;0.80;0.70;;;12.50;99.90;;;;;;5035275;28;20623;-69
2023/07/22 02:34:16;;;;;;;0.70;0.70;;;12.60;99.90;;;;;;5017614;28;20182;-70
2023/07/22 02:36:42;;;;;;;5.07;1.40;;;12.50;99.90;;;;;;5035603;28;20764;-68
2023/07/22 02:39:09;;;;;;;0.87;0.87;;;12.40;99.90;;;;;;5034837;28;20191;-69
2023/07/22 02:41:36;;;;;;;0.50;0.50;;;12.50;99.90;;;;;;5035077;28;20733;-68
2023/07/22 02:44:03;;;;;;;1.33;1.00;;;12.40;99.90;;;;;;5035128;28;20524;-68
2023/07/22 02:46:28;;;;;;;0.37;0.37;;;12.40;99.90;;;;;;5035265;28;20426;-69
2023/07/22 02:48:55;;;;;;;0.50;0.50;;;12.30;99.90;;;;;;5035065;28;20462;-69
2023/07/22 02:51:20;;;;;;;0.40;0.40;;;12.40;99.90;;;;;;5034877;28;20176;-68
2023/07/22 02:53:46;;;;;;;2.73;1.13;;;12.40;99.90;;;;;;5033759;28;20398;-68
2023/07/22 02:56:12;;;;;;;0.60;0.60;;;12.30;99.90;;;;;;5034726;28;20163;-69
2023/07/22 02:58:38;;;;;;;0.50;0.50;;;12.30;99.90;;;;;;5032950;28;20429;-69
2023/07/22 03:01:08;;;;;;;1.80;1.03;;;12.20;99.90;;;;;;5033655;28;20402;-69
2023/07/22 03:03:34;;;;;;;1.40;0.57;;;12.20;99.90;;;;;;5033738;28;20401;-69
2023/07/22 03:06:00;;;;;;;2.20;0.50;;;12.20;99.90;;;;;;5033974;28;20931;-69
2023/07/22 03:08:26;;;;;;;0.70;0.70;;;12.20;99.90;;;;;;5033390;28;20433;-68
2023/07/22 03:10:52;;;;;;;0.60;0.50;;;12.20;99.90;;;;;;5033763;28;20416;-69
2023/07/22 03:13:17;;;;;;;0.70;0.70;;;12.30;99.90;;;;;;5034858;28;20646;-68
2023/07/22 03:15:43;;;;;;;1.33;0.70;;;12.30;99.90;;;;;;5034855;28;20171;-68
2023/07/22 03:18:12;;;;;;;1.23;1.23;;;12.30;99.90;;;;;;5034477;28;20207;-68
2023/07/22 03:20:38;;;;;;;0.60;0.60;;;12.20;99.90;;;;;;5033221;28;20769;-70
2023/07/22 03:23:05;;;;;;;2.03;1.92;;;12.20;99.90;;;;;;5033758;28;20182;-68
2023/07/22 03:25:31;;;;;;;5.60;2.10;;;12.30;99.90;;;;;;5033645;28;20277;-69
2023/07/22 03:27:58;;;;;;;1.05;0.98;;;12.20;99.90;;;;;;5033633;28;20420;-69
2023/07/22 03:30:24;;;;;;;1.30;1.20;;;12.20;99.90;;;;;;5033657;28;20170;-70
2023/07/22 03:32:52;;;;;;;1.13;1.13;;;12.30;99.90;;;;;;5030799;28;20488;-69
2023/07/22 03:35:18;;;;;;;0.70;0.70;;;12.30;99.90;;;;;;5033734;28;20592;-68
2023/07/22 03:37:43;;;;;;;1.47;1.13;;;12.20;99.90;;;;;;5034212;28;20484;-68
2023/07/22 03:40:19;;;;;;;0.73;0.70;;;12.10;99.90;;;;;;5033299;28;20171;-70
2023/07/22 03:42:49;;;;;;;0.50;0.50;;;12.10;99.90;;;;;;5033990;28;20166;-67
2023/07/22 03:45:15;;;;;;;0.67;0.53;;;12.00;99.90;;;;;;5034229;28;20456;-69
2023/07/22 03:47:41;;;;;;;1.07;1.03;;;12.00;99.90;;;;;;5034025;28;20475;-68
2023/07/22 03:50:08;;;;;;;0.67;0.67;;;12.10;99.90;;;;;;5034505;28;20413;-69
2023/07/22 03:52:33;;;;;;;2.00;1.03;;;12.00;99.90;;;;;;5032979;28;20924;-69
2023/07/22 03:55:00;;;;;;;7.40;1.10;;;12.10;99.90;;;;;;5034031;28;20412;-69
2023/07/22 03:57:27;;;;;;;1.27;1.17;;;12.10;99.90;;;;;;5033567;28;20174;-67
2023/07/22 03:59:54;;;;;;;1.93;1.83;;;12.10;99.90;;;;;;5033756;28;20771;-69
2023/07/22 04:02:19;;;;;;;1.33;0.83;;;12.10;99.90;;;;;;5033570;28;20402;-69
2023/07/22 04:04:45;;;;;;;0.60;0.60;;;12.10;99.90;;;;;;5033493;28;20812;-69
2023/07/22 04:07:11;;;;;;;1.17;0.50;;;11.90;99.90;;;;;;5033742;28;20203;-68
2023/07/22 04:09:36;;;;;;;1.90;0.93;;;12.00;99.90;;;;;;5033662;28;20663;-69
2023/07/22 04:12:02;;;;;;;0.50;0.43;;;12.10;99.90;;;;;;5033443;28;20179;-68
2023/07/22 04:14:28;;;;;;;0.40;0.40;;;12.10;99.90;;;;;;5033759;28;20176;-69
2023/07/22 04:16:54;;;;;;;0.73;0.70;;;12.00;99.90;;;;;;5033585;28;20183;-69
2023/07/22 04:19:19;;;;;;;0.50;0.50;;;12.10;99.90;;;;;;5033327;28;20460;-69
2023/07/22 04:21:45;;;;;;;0.50;0.50;;;12.20;99.90;;;;;;5033329;28;20176;-68
2023/07/22 04:24:10;;;;;;;1.27;1.13;;;12.30;99.90;;;;;;5033527;28;20191;-68
2023/07/22 04:26:36;;;;;;;1.47;1.23;;;12.40;99.90;;;;;;5033278;28;20166;-69
2023/07/22 04:29:02;;;;;;;0.37;0.37;;;12.30;99.90;;;;;;5015586;28;20201;-69
2023/07/22 04:31:27;;;;;;;1.63;1.50;;;12.30;99.90;;;;;;5033112;28;20168;-69
2023/07/22 04:33:53;;;;;;;0.40;0.40;;;12.30;99.90;;;;;;5033441;28;20175;-69
2023/07/22 04:36:19;;;;;;;0.40;0.40;;;12.40;99.90;;;;;;5033396;28;20220;-68
2023/07/22 04:38:44;;;;;;;0.77;0.77;;;12.40;99.90;;;;;;5033367;28;20194;-68
2023/07/22 04:41:10;;;;;;;0.40;0.40;;;12.40;99.90;;;;;;5033030;28;20171;-68
2023/07/22 04:43:35;;;;;;;1.07;0.97;;;12.50;99.90;;;;;;5032844;28;20239;-69
2023/07/22 04:46:01;;;;;;;1.33;1.23;;;12.50;99.90;;;;;;5032456;28;20248;-69
2023/07/22 04:48:27;;;;;;;3.13;1.10;;;12.50;99.90;;;;;;5032275;28;20270;-69
2023/07/22 04:50:52;;;;;;;0.63;0.63;;;12.90;99.90;;;;;;5031731;28;20187;-69
2023/07/22 04:53:18;;;;;;;0.83;0.83;;;13.40;99.90;;;;;;5032933;28;20249;-69
2023/07/22 04:55:44;;;;;;;1.80;1.00;;;13.90;99.90;;;;;;5032805;28;20169;-68
2023/07/22 04:58:10;;;;;;;1.13;1.03;;;14.30;99.90;;;;;;5031354;28;20278;-69
2023/07/22 05:00:37;;;;;;;0.57;0.57;;;14.50;99.90;;;;;;5032109;28;20459;-69
2023/07/22 05:03:03;;;;;;;0.60;0.60;;;14.60;99.90;;;;;;5031923;28;20761;-69
2023/07/22 05:05:29;;;;;;;0.60;0.60;;;14.60;99.90;;;;;;5032814;28;20974;-70
2023/07/22 05:07:54;;;;;;;0.83;0.83;;;14.60;99.90;;;;;;5033014;28;20426;-69
2023/07/22 05:10:20;;;;;;;0.57;0.57;;;14.90;99.90;;;;;;5032981;28;20167;-69
2023/07/22 05:12:46;;;;;;;1.63;0.87;;;15.40;99.90;;;;;;5032791;28;20210;-69
2023/07/22 05:15:13;;;;;;;0.60;0.60;;;16.00;99.90;;;;;;5033042;28;20179;-68
2023/07/22 05:17:38;;;;;;;1.07;0.97;;;16.50;98.50;;;;;;5036565;28;20195;-70
2023/07/22 05:20:09;;;;;;;2.57;1.50;;;16.80;97.30;;;;;;5037001;28;20515;-69
2023/07/22 05:22:35;;;;;;;0.73;0.73;;;16.90;97.60;;;;;;5036461;28;20177;-68
2023/07/22 05:25:00;;;;;;;1.37;1.33;;;17.00;97.80;;;;;;5036563;28;20449;-69
2023/07/22 05:27:26;;;;;;;0.60;0.40;;;17.30;99.90;;;;;;5036281;28;20406;-69
2023/07/22 05:29:52;;;;;;;1.37;1.00;;;17.30;96.40;;;;;;5035999;28;20178;-68
2023/07/22 05:32:17;;;;;;;0.40;0.40;;;17.20;95.90;;;;;;5036448;28;20174;-69
2023/07/22 05:34:43;;;;;;;1.23;1.13;;;17.20;96.10;;;;;;5036357;28;20174;-68
2023/07/22 05:37:08;;;;;;;0.70;0.70;;;17.20;99.90;;;;;;5036308;28;20253;-69
2023/07/22 05:39:34;;;;;;;0.77;0.77;;;17.10;97.00;;;;;;5036821;28;20171;-69
2023/07/22 05:42:00;;;;;;;0.90;0.77;;;17.10;96.80;;;;;;5036202;28;20172;-69
2023/07/22 05:44:25;;;;;;;0.30;0.30;;;17.20;96.40;;;;;;5036290;28;20199;-68
2023/07/22 05:46:51;;;;;;;0.67;0.67;;;17.40;96.60;;;;;;5036349;28;20413;-69
2023/07/22 05:49:17;;;;;;;1.57;1.47;;;17.40;96.20;;;;;;5036158;28;20186;-68
2023/07/22 05:51:42;;;;;;;1.00;0.93;;;17.20;96.00;;;;;;5035965;28;20228;-70
2023/07/22 05:54:08;;;;;;;0.40;0.40;;;17.30;96.70;;;;;;5036090;28;20175;-68
2023/07/22 05:56:34;;;;;;;0.83;0.83;;;17.70;96.80;;;;;;5036096;28;20297;-68
2023/07/22 05:58:59;;;;;;;1.10;1.00;;;18.10;96.80;;;;;;5035962;28;20197;-69
2023/07/22 06:01:25;;;;;;;0.57;0.57;;;18.60;96.20;;;;;;5035812;28;20171;-69
2023/07/22 06:03:51;;;;;;;3.67;1.27;;;19.20;95.10;;;;;;5017518;28;20185;-69
2023/07/22 06:06:17;;;;;;;0.70;0.70;;;19.50;94.20;;;;;;5036301;28;20539;-69
2023/07/22 06:08:42;;;;;;;0.70;0.70;;;19.50;93.60;;;;;;5034946;28;20416;-68
2023/07/22 06:11:08;;;;;;;1.13;0.93;;;19.50;93.60;;;;;;5035569;28;20175;-69
2023/07/22 06:13:34;;;;;;;0.97;0.97;;;19.40;93.80;;;;;;5035646;28;20172;-69
2023/07/22 06:15:59;;;;;;;0.57;0.57;;;19.40;94.30;;;;;;5035952;28;20176;-69
2023/07/22 06:18:25;;;;;;;1.23;0.60;;;19.50;94.60;;;;;;5017692;28;20238;-70
2023/07/22 06:20:51;;;;;;;0.50;0.50;;;19.90;93.70;;;;;;5035463;28;20171;-68
2023/07/22 06:23:16;;;;;;;1.70;0.97;;;20.40;93.60;;;;;;5035479;28;20177;-69
2023/07/22 06:25:42;;;;;;;0.57;0.53;;;21.00;93.00;;;;;;5035238;28;20208;-68
2023/07/22 06:28:08;;;;;;;0.40;0.40;;;21.40;91.40;;;;;;5033896;28;20247;-69
2023/07/22 06:30:34;;;;;;;0.70;0.70;;;21.90;91.50;;;;;;5034041;28;20177;-69
2023/07/22 06:33:00;;;;;;;0.90;0.57;;;22.80;90.80;;;;;;5034090;28;20409;-69
2023/07/22 06:35:25;;;;;;;0.70;0.60;;;24.00;86.70;;;;;;5035536;28;20179;-68
2023/07/22 06:37:51;;;;;;;0.57;0.53;;;25.40;82.40;;;;;;5035212;28;20202;-70
2023/07/22 06:40:17;;;;;;;0.60;0.60;;;26.90;78.30;;;;;;5035312;28;20178;-70
2023/07/22 06:42:43;;;;;;;0.87;0.73;;;28.30;74.10;;;;;;5035212;28;20541;-69
2023/07/22 06:45:09;;;;;;;1.00;0.50;;;29.50;67.20;;;;;;5035242;28;20456;-69
2023/07/22 06:47:36;;;;;;;1.03;0.93;;;30.50;62.10;;;;;;5035214;28;20590;-70
2023/07/22 06:50:05;;;;;;;1.17;1.10;;;30.90;57.00;;;;;;5035139;28;20912;-71
2023/07/22 06:52:34;;;;;;;0.60;0.60;;;31.00;57.00;;;;;;5034911;28;20886;-70
2023/07/22 06:54:59;;;;;;;0.60;0.60;;;31.20;56.00;;;;;;5035487;28;20398;-69
2023/07/22 06:57:26;;;;;;;0.70;0.60;;;30.80;73.20;;;;;;5034977;28;20745;-71
2023/07/22 06:59:55;;;;;;;0.70;0.70;;;30.70;55.00;;;;;;5034885;28;20706;-70
2023/07/22 07:02:21;;;;;;;1.17;1.10;;;29.90;56.70;;;;;;5034738;28;20435;-69
2023/07/22 07:04:47;;;;;;;1.23;1.13;;;28.90;56.60;;;;;;5034877;28;20441;-71
2023/07/22 07:07:14;;;;;;;0.60;0.60;;;27.60;72.80;;;;;;5034959;28;20397;-70
2023/07/22 07:09:40;;;;;;;0.60;0.50;;;27.70;59.80;;;;;;5034783;28;20402;-69
2023/07/22 07:12:06;;;;;;;0.40;0.40;;;27.00;59.20;;;;;;5034467;28;20402;-70
2023/07/22 07:14:33;;;;;;;1.50;0.90;;;26.20;62.50;;;;;;5034711;28;20496;-69
2023/07/22 07:17:00;;;;;;;0.60;0.60;;;25.60;65.50;;;;;;5034717;28;20417;-70
2023/07/22 07:19:28;;;;;;;0.87;0.70;;;25.40;64.90;;;;;;5034589;28;20514;-69
2023/07/22 07:21:54;;;;;;;0.60;0.60;;;25.00;65.80;;;;;;5034361;28;20405;-68
2023/07/22 07:24:20;;;;;;;1.87;0.73;;;24.50;66.80;;;;;;5034375;28;20420;-70
2023/07/22 07:26:46;;;;;;;0.57;0.57;;;23.70;70.00;;;;;;5034439;28;20485;-68
2023/07/22 07:29:12;;;;;;;0.60;0.60;;;23.10;71.70;;;;;;5034237;28;20194;-70
2023/07/22 07:31:38;;;;;;;0.97;0.77;;;22.60;72.50;;;;;;5034184;28;20941;-68
2023/07/22 07:34:04;;;;;;;0.63;0.43;;;22.40;74.20;;;;;;5034126;28;20440;-68
2023/07/22 07:36:30;;;;;;;1.33;0.77;;;22.10;77.20;;;;;;5034229;28;20436;-70
2023/07/22 07:38:55;;;;;;;0.50;0.50;;;21.80;77.10;;;;;;5033587;28;20196;-69
2023/07/22 07:41:21;;;;;;;1.33;0.90;;;21.30;75.80;;;;;;5034110;28;20292;-69
2023/07/22 07:43:47;;;;;;;0.50;0.50;;;21.00;76.50;;;;;;5033840;28;20173;-70
2023/07/22 07:46:22;;;;;;;0.47;0.47;;;20.70;82.80;;;;;;5034083;28;20619;-70
2023/07/22 07:49:03;;;;;;;0.60;0.60;;;20.30;87.70;;;;;;5034054;28;20226;-71
2023/07/22 07:51:30;;;;;;;0.50;0.40;;;20.00;84.40;;;;;;5033762;28;20404;-70
2023/07/22 07:53:58;;;;;;;0.60;0.60;;;20.00;87.70;;;;;;5034160;28;20495;-70
2023/07/22 07:56:24;;;;;;;0.60;0.60;;;20.10;92.00;;;;;;5033997;28;20760;-70
2023/07/22 07:58:52;;;;;;;0.50;0.50;;;19.70;91.20;;;;;;5033690;28;20517;-70
2023/07/22 08:01:18;;;;;;;0.80;0.80;;;19.70;93.20;;;;;;5033563;28;20405;-70
2023/07/22 08:03:44;;;;;;;1.53;1.23;;;19.80;93.00;;;;;;5033748;28;20397;-70
2023/07/22 08:06:10;;;;;;;0.83;0.83;;;19.80;93.50;;;;;;5034098;28;20173;-71
2023/07/22 08:08:37;;;;;;;1.17;0.70;;;20.60;91.40;;;;;;5033899;28;20421;-71
2023/07/22 08:11:13;;;;;;;0.90;0.80;;;22.60;85.20;;;;;;5033454;28;20417;-71
2023/07/22 08:13:39;;;;;;;0.83;0.80;;;24.30;79.00;;;;;;5033780;28;20379;-70
2023/07/22 08:16:06;;;;;;;1.77;0.93;;;25.10;75.80;;;;;;5033531;28;20384;-70
2023/07/22 08:18:32;;;;;;;0.67;0.67;;;25.10;70.40;;;;;;5033327;28;20424;-70
2023/07/22 08:20:59;;;;;;;1.23;1.13;;;25.50;73.00;;;;;;5033504;28;20777;-70
2023/07/22 08:23:24;;;;;;;1.27;1.00;;;26.90;72.70;;;;;;5033702;28;20400;-72
2023/07/22 08:25:50;;;;;;;0.53;0.53;;;28.40;63.20;;;;;;5033357;28;20487;-71
2023/07/22 08:28:16;;;;;;;0.73;0.70;;;29.30;61.10;;;;;;5033420;28;20613;-71
2023/07/22 08:30:42;;;;;;;1.80;0.70;;;30.60;56.50;;;;;;5033251;28;20171;-71
2023/07/22 08:33:11;;;;;;;1.33;0.63;;;31.90;52.20;;;;;;5033565;28;20398;-70
2023/07/22 08:35:38;;;;;;;1.77;0.93;;;32.10;50.00;;;;;;5033300;28;20635;-70
2023/07/22 08:38:04;;;;;;;0.70;0.70;;;32.70;52.30;;;;;;5033272;28;20429;-70
2023/07/22 08:40:38;;;;;;;0.60;0.57;;;32.70;50.00;;;;;;5033244;28;20472;-70
2023/07/22 08:43:05;;;;;;;0.70;0.70;;;32.80;48.90;;;;;;5033333;28;20167;-70
2023/07/22 08:45:34;;;;;;;0.70;0.70;;;32.10;46.80;;;;;;5033238;28;20789;-70
2023/07/22 08:48:07;;;;;;;1.03;0.93;;;30.70;48.30;;;;;;5033230;28;20788;-70
2023/07/22 08:50:38;;;;;;;1.00;0.90;;;28.50;49.90;;;;;;5032352;28;20488;-71
2023/07/22 08:53:05;;;;;;;0.70;0.57;;;28.50;53.20;;;;;;5018568;28;20418;-70
2023/07/22 08:55:30;;;;;;;1.37;0.70;;;29.30;51.10;;;;;;5036875;28;20492;-70
2023/07/22 08:57:58;;;;;;;1.23;0.73;;;29.10;47.70;;;;;;5036117;28;20508;-70
2023/07/22 09:00:24;;;;;;;0.63;0.60;;;28.10;51.80;;;;;;5037210;28;20166;-70
2023/07/22 09:02:51;;;;;;;0.60;0.40;;;27.30;50.00;;;;;;5036906;28;20413;-71
2023/07/22 09:05:17;;;;;;;0.50;0.50;;;27.70;50.60;;;;;;5037086;28;20730;-71
2023/07/22 09:07:43;;;;;;;0.60;0.60;;;28.50;53.70;;;;;;5036909;28;20425;-71
2023/07/22 09:10:09;;;;;;;0.50;0.50;;;29.40;49.80;;;;;;5037093;28;20425;-71
2023/07/22 09:12:40;;;;;;;0.90;0.60;;;29.20;50.80;;;;;;5036740;28;20402;-70
2023/07/22 09:15:15;;;;;;;0.77;0.77;;;29.00;48.20;;;;;;5036616;28;20405;-72
2023/07/22 09:17:41;;;;;;;0.93;0.60;;;29.90;46.70;;;;;;5036030;28;20547;-70
2023/07/22 09:20:08;;;;;;;0.77;0.77;;;30.60;45.10;;;;;;5036693;28;20406;-70
2023/07/22 09:22:34;;;;;;;0.50;0.47;;;31.20;42.90;;;;;;5036531;28;20254;-71
2023/07/22 09:25:27;;;;;;;0.67;0.67;;;30.90;44.90;;;;;;5034526;28;20571;-71
2023/07/22 09:27:55;;;;;;;0.67;0.67;;;30.50;43.70;;;;;;5036615;28;20479;-71
2023/07/22 09:30:36;;;;;;;0.50;0.47;;;30.00;45.40;;;;;;5036353;28;20404;-71
2023/07/22 09:33:03;;;;;;;0.87;0.47;;;29.80;43.60;;;;;;5036316;28;20488;-70
2023/07/22 09:35:42;;;;;;;0.57;0.57;;;29.60;47.00;;;;;;5036685;28;20405;-71
2023/07/22 09:38:08;;;;;;;0.70;0.70;;;29.20;47.20;;;;;;5036492;28;20420;-71
2023/07/22 09:40:33;;;;;;;0.50;0.50;;;29.50;49.50;;;;;;5036504;28;20413;-70
2023/07/22 09:43:02;;;;;;;0.80;0.80;;;29.60;45.10;;;;;;5036153;28;20222;-71
2023/07/22 09:45:30;;;;;;;0.40;0.40;;;30.10;46.00;;;;;;5036235;28;20286;-71
2023/07/22 09:47:56;;;;;;;0.80;0.60;;;30.30;44.80;;;;;;5036225;28;20464;-71
2023/07/22 09:50:23;;;;;;;0.80;0.60;;;29.20;44.10;;;;;;5036170;28;20405;-71
2023/07/22 09:52:54;;;;;;;0.67;0.53;;;29.00;45.70;;;;;;5035979;28;20406;-71
2023/07/22 09:55:22;;;;;;;0.83;0.60;;;29.30;43.40;;;;;;5036348;28;20413;-71
2023/07/22 09:57:52;;;;;;;0.50;0.50;;;29.80;48.40;;;;;;5036171;28;20476;-71
2023/07/22 10:00:20;;;;;;;0.60;0.60;;;30.10;42.10;;;;;;5036095;28;20401;-69
2023/07/22 10:02:51;;;;;;;0.60;0.50;;;30.00;44.70;;;;;;5035283;28;20417;-69
2023/07/22 10:05:19;;;;;;;0.50;0.50;;;29.80;43.50;;;;;;5035988;28;20551;-70
2023/07/22 10:07:47;;;;;;;0.50;0.50;;;29.40;45.00;;;;;;5035990;28;20968;-69
2023/07/22 10:10:16;;;;;;;1.37;1.13;;;29.60;47.30;;;;;;5035657;28;20950;-70
2023/07/22 10:12:42;;;;;;;0.50;0.50;;;29.10;44.70;;;;;;5033532;28;20417;-71
2023/07/22 10:15:13;;;;;;;0.60;0.60;;;29.10;46.80;;;;;;5034620;28;20405;-71
2023/07/22 10:17:41;;;;;;;0.67;0.60;;;29.30;44.60;;;;;;5034522;28;20887;-71
2023/07/22 10:20:08;;;;;;;0.90;0.60;;;30.00;44.40;;;;;;5035417;28;20425;-71
2023/07/22 10:22:37;;;;;;;0.80;0.80;;;30.80;45.20;;;;;;5035393;28;20413;-70
2023/07/22 10:25:07;;;;;;;0.90;0.67;;;30.60;44.50;;;;;;5035524;28;20595;-71
2023/07/22 10:27:40;;;;;;;0.60;0.43;;;30.10;44.20;;;;;;5035471;28;20432;-70
2023/07/22 10:30:10;;;;;;;3.17;0.70;;;30.00;44.20;;;;;;5035580;28;20455;-70
2023/07/22 10:32:40;;;;;;;1.00;0.60;;;29.90;45.10;;;;;;5035355;28;20500;-71
2023/07/22 10:35:21;;;;;;;0.63;0.63;;;30.00;44.80;;;;;;5035401;28;20414;-70
2023/07/22 10:37:47;;;;;;;1.27;0.60;;;30.50;47.20;;;;;;5035340;28;20781;-72
2023/07/22 10:40:29;;;;;;;1.37;0.70;;;30.60;44.90;;;;;;5035328;28;20878;-71
2023/07/22 10:43:05;;;;;;;0.90;0.80;;;30.50;45.90;;;;;;5035090;28;21096;-71
2023/07/22 10:45:33;;;;;;;0.43;0.43;;;29.90;43.70;;;;;;5035377;28;20471;-71
2023/07/22 10:48:06;;;;;;;0.50;0.50;;;29.20;44.50;;;;;;5035264;28;20426;-71
2023/07/22 10:50:42;;;;;;;0.73;0.70;;;28.90;47.10;;;;;;5035390;28;20769;-70
2023/07/22 10:53:20;;;;;;;0.90;0.90;;;28.80;48.90;;;;;;5035117;28;20413;-70
2023/07/22 10:56:17;;;;;;;0.77;0.77;;;28.60;48.00;;;;;;5034645;28;20776;-71
2023/07/22 10:58:45;;;;;;;0.50;0.50;;;28.40;46.00;;;;;;5033243;28;20438;-71
2023/07/22 11:01:27;;;;;;;0.63;0.60;;;27.70;47.00;;;;;;5033973;28;20421;-71
2023/07/22 11:04:17;;;;;;;0.70;0.60;;;27.60;48.70;;;;;;5034919;28;20410;-71
2023/07/22 11:06:48;;;;;;;0.60;0.60;;;27.70;47.00;;;;;;5034570;28;20397;-70
2023/07/22 11:12:16;;;;;;;1.20;1.10;;;27.60;47.60;;;;;;5034622;28;20419;-70
2023/07/22 11:14:49;;;;;;;0.70;0.57;;;27.30;47.20;;;;;;5034028;28;20485;-71
2023/07/22 11:17:17;;;;;;;0.50;0.40;;;26.70;57.70;;;;;;5034607;28;20380;-70
2023/07/22 11:19:43;;;;;;;0.50;0.40;;;27.00;47.70;;;;;;5034598;28;20496;-70
2023/07/22 11:22:10;;;;;;;0.70;0.70;;;26.90;47.80;;;;;;5034313;28;20492;-70
2023/07/22 11:24:36;;;;;;;0.70;0.67;;;26.70;46.20;;;;;;5034541;28;20477;-71
2023/07/22 11:27:08;;;;;;;0.40;0.40;;;26.50;50.70;;;;;;5034514;28;20398;-70
2023/07/22 11:29:34;;;;;;;0.40;0.40;;;26.10;51.20;;;;;;5034662;28;20837;-70
2023/07/22 11:32:01;;;;;;;0.60;0.60;;;25.90;51.00;;;;;;5034168;28;20410;-71
2023/07/22 11:34:27;;;;;;;1.17;0.60;;;26.10;50.30;;;;;;5034071;28;20418;-70
2023/07/22 11:36:55;;;;;;;0.70;0.60;;;26.20;50.40;;;;;;5034371;28;20413;-71
2023/07/22 11:39:22;;;;;;;0.60;0.60;;;26.30;48.60;;;;;;5034135;28;20561;-70
2023/07/22 11:41:49;;;;;;;0.60;0.60;;;26.40;51.20;;;;;;5034049;28;20388;-70
2023/07/22 11:44:20;;;;;;;0.50;0.50;;;26.20;49.90;;;;;;5034023;28;20674;-70
2023/07/22 11:46:56;;;;;;;2.10;0.63;;;25.60;49.30;;;;;;5034126;28;20382;-70
2023/07/22 11:49:25;;;;;;;0.60;0.57;;;25.80;53.50;;;;;;5033934;28;20404;-71
2023/07/22 11:51:54;;;;;;;0.93;0.50;;;25.80;51.40;;;;;;5033831;28;20391;-70
2023/07/22 11:54:21;;;;;;;0.80;0.80;;;25.90;52.30;;;;;;5034016;28;20392;-71
2023/07/22 11:56:47;;;;;;;0.60;0.60;;;25.60;50.60;;;;;;5033814;28;20384;-71
2023/07/22 11:59:12;;;;;;;0.57;0.57;;;25.60;52.40;;;;;;5034042;28;20447;-71
2023/07/22 12:01:38;;;;;;;0.73;0.70;;;25.50;50.60;;;;;;5033602;28;20186;-71
2023/07/22 12:04:14;;;;;;;1.47;0.70;;;25.60;50.90;;;;;;5033851;28;20249;-70
2023/07/22 12:06:41;;;;;;;1.67;1.57;;;25.10;51.20;;;;;;5033954;28;20240;-70
2023/07/22 12:09:09;;;;;;;0.60;0.60;;;24.70;52.20;;;;;;5033603;28;20430;-71
2023/07/22 12:11:35;;;;;;;2.47;0.83;;;24.70;53.70;;;;;;5033546;28;20383;-71
2023/07/22 12:14:12;;;;;;;0.57;0.57;;;24.80;53.80;;;;;;5033663;28;20406;-71
2023/07/22 12:16:41;;;;;;;0.73;0.73;;;25.20;52.60;;;;;;5033749;28;20573;-71
2023/07/22 12:19:07;;;;;;;1.33;0.77;;;25.40;51.60;;;;;;5033544;28;20507;-71
2023/07/22 12:21:33;;;;;;;0.60;0.60;;;25.40;52.80;;;;;;5033323;28;20403;-70
2023/07/22 12:24:00;;;;;;;0.83;0.77;;;25.00;51.20;;;;;;5033432;28;20414;-71
2023/07/22 12:26:26;;;;;;;1.33;0.67;;;24.70;53.70;;;;;;5033507;28;20585;-70
2023/07/22 12:28:51;;;;;;;1.77;0.97;;;24.40;51.90;;;;;;5033272;28;20505;-70
2023/07/22 12:31:17;;;;;;;0.60;0.60;;;24.40;54.70;;;;;;5033172;28;20171;-70
2023/07/22 12:33:43;;;;;;;0.73;0.73;;;24.60;54.90;;;;;;5033439;28;20586;-70
2023/07/22 12:36:08;;;;;;;0.40;0.40;;;24.80;52.30;;;;;;5033261;28;20174;-71
2023/07/22 12:38:35;;;;;;;0.60;0.60;;;24.90;51.70;;;;;;5033204;28;20251;-71
2023/07/22 12:41:01;;;;;;;1.27;1.00;;;25.00;51.20;;;;;;5033075;28;20220;-71
2023/07/22 12:43:27;;;;;;;2.23;0.67;;;25.10;53.50;;;;;;5033045;28;20797;-70
2023/07/22 12:45:52;;;;;;;0.60;0.60;;;25.10;52.80;;;;;;5033296;28;20457;-70
2023/07/22 12:48:18;;;;;;;1.37;1.27;;;25.20;53.80;;;;;;5033063;28;20308;-70
2023/07/22 12:50:44;;;;;;;0.73;0.60;;;25.10;52.70;;;;;;5032550;28;20174;-71